sensor_id;sensor_type;location;lat;lon;timestamp;pressure;altitude;pressure_sealevel;temperature;humidity
63970;BME280;50156;37.772;-122.432;2022-09-27T00:00:48;101027.01;;;16.92;100.00
63970;BME280;50156;37.772;-122.432;2022-09-27T00:03:17;101015.82;;;17.03;100.00
63970;BME280;50156;37.772;-122.432;2022-09-27T00:05:46;101023.67;;;16.28;100.00
63970;BME280;50156;37.772;-122.432;2022-09-27T00:08:15;101023.11;;;16.13;100.00
63970;BME280;50156;37.772;-122.432;2022-09-27T00:10:45;101017.32;;;16.33;100.00
63970;BME280;50156;37.772;-122.432;2022-09-27T00:13:13;101019.39;;;16.57;100.00
63970;BME280;50156;37.772;-122.432;2022-09-27T00:15:42;101016.57;;;16.54;100.00
63970;BME280;50156;37.772;-122.432;2022-09-27T00:18:11;101023.00;;;16.25;100.00
63970;BME280;50156;37.772;-122.432;2022-09-27T00:20:39;101039.55;;;16.50;100.00
63970;BME280;50156;37.772;-122.432;2022-09-27T00:23:08;101025.46;;;16.19;100.00
63970;BME280;50156;37.772;-122.432;2022-09-27T00:25:37;101016.67;;;16.25;100.00
63970;BME280;50156;37.772;-122.432;2022-09-27T00:28:06;101017.29;;;16.28;100.00
63970;BME280;50156;37.772;-122.432;2022-09-27T00:30:35;101016.96;;;16.23;100.00
63970;BME280;50156;37.772;-122.432;2022-09-27T00:33:10;101004.20;;;16.13;100.00
63970;BME280;50156;37.772;-122.432;2022-09-27T00:35:38;101002.85;;;15.87;100.00
63970;BME280;50156;37.772;-122.432;2022-09-27T00:38:06;101013.68;;;15.93;100.00
63970;BME280;50156;37.772;-122.432;2022-09-27T00:40:35;101008.09;;;15.70;100.00
63970;BME280;50156;37.772;-122.432;2022-09-27T00:43:14;101015.36;;;15.61;100.00
63970;BME280;50156;37.772;-122.432;2022-09-27T00:45:46;101013.18;;;15.74;100.00
63970;BME280;50156;37.772;-122.432;2022-09-27T00:48:19;101015.00;;;15.61;100.00
63970;BME280;50156;37.772;-122.432;2022-09-27T00:50:51;101009.21;;;15.81;100.00
63970;BME280;50156;37.772;-122.432;2022-09-27T00:53:26;101009.96;;;15.85;100.00
63970;BME280;50156;37.772;-122.432;2022-09-27T00:56:01;101007.78;;;15.72;100.00
63970;BME280;50156;37.772;-122.432;2022-09-27T00:58:33;101006.43;;;15.63;100.00
63970;BME280;50156;37.772;-122.432;2022-09-27T01:01:06;101016.66;;;15.42;100.00
63970;BME280;50156;37.772;-122.432;2022-09-27T01:03:41;101016.62;;;15.46;100.00
63970;BME280;50156;37.772;-122.432;2022-09-27T01:06:13;101022.41;;;15.29;100.00
63970;BME280;50156;37.772;-122.432;2022-09-27T01:08:43;101026.91;;;15.30;100.00
63970;BME280;50156;37.772;-122.432;2022-09-27T01:11:20;101036.99;;;15.10;100.00
63970;BME280;50156;37.772;-122.432;2022-09-27T01:14:06;101033.17;;;15.21;100.00
63970;BME280;50156;37.772;-122.432;2022-09-27T01:16:44;101039.50;;;15.01;100.00
63970;BME280;50156;37.772;-122.432;2022-09-27T01:19:45;101040.69;;;14.91;100.00
63970;BME280;50156;37.772;-122.432;2022-09-27T01:22:18;101035.54;;;15.09;100.00
63970;BME280;50156;37.772;-122.432;2022-09-27T01:24:56;101036.52;;;15.03;100.00
63970;BME280;50156;37.772;-122.432;2022-09-27T01:28:20;101033.74;;;15.04;100.00
63970;BME280;50156;37.772;-122.432;2022-09-27T01:30:56;101031.13;;;15.14;100.00
63970;BME280;50156;37.772;-122.432;2022-09-27T01:33:39;101024.43;;;15.09;100.00
63970;BME280;50156;37.772;-122.432;2022-09-27T01:36:18;101021.98;;;15.10;100.00
63970;BME280;50156;37.772;-122.432;2022-09-27T01:38:56;101022.47;;;15.10;100.00
63970;BME280;50156;37.772;-122.432;2022-09-27T01:41:35;101022.29;;;14.94;100.00
63970;BME280;50156;37.772;-122.432;2022-09-27T01:44:10;101024.48;;;15.10;100.00
63970;BME280;50156;37.772;-122.432;2022-09-27T01:46:44;101029.07;;;14.81;100.00
63970;BME280;50156;37.772;-122.432;2022-09-27T01:49:18;101027.56;;;14.62;100.00
63970;BME280;50156;37.772;-122.432;2022-09-27T01:51:54;101026.35;;;14.88;100.00
63970;BME280;50156;37.772;-122.432;2022-09-27T01:54:27;101030.41;;;14.81;100.00
63970;BME280;50156;37.772;-122.432;2022-09-27T01:56:59;101015.36;;;14.93;100.00
63970;BME280;50156;37.772;-122.432;2022-09-27T01:59:32;101015.11;;;14.70;100.00
63970;BME280;50156;37.772;-122.432;2022-09-27T02:02:08;101020.72;;;14.85;100.00
63970;BME280;50156;37.772;-122.432;2022-09-27T02:04:39;101024.36;;;14.78;100.00
63970;BME280;50156;37.772;-122.432;2022-09-27T02:07:13;101034.69;;;14.63;100.00
63970;BME280;50156;37.772;-122.432;2022-09-27T02:09:49;101042.30;;;14.57;100.00
63970;BME280;50156;37.772;-122.432;2022-09-27T02:12:22;101037.92;;;14.35;100.00
63970;BME280;50156;37.772;-122.432;2022-09-27T02:14:56;101037.99;;;14.47;100.00
63970;BME280;50156;37.772;-122.432;2022-09-27T02:17:33;101034.88;;;14.54;100.00
63970;BME280;50156;37.772;-122.432;2022-09-27T02:20:11;101041.60;;;14.56;100.00
63970;BME280;50156;37.772;-122.432;2022-09-27T02:22:47;101041.94;;;14.77;100.00
63970;BME280;50156;37.772;-122.432;2022-09-27T02:25:22;101036.20;;;14.60;100.00
63970;BME280;50156;37.772;-122.432;2022-09-27T02:27:58;101042.19;;;14.57;100.00
63970;BME280;50156;37.772;-122.432;2022-09-27T02:30:30;101046.21;;;14.64;100.00
63970;BME280;50156;37.772;-122.432;2022-09-27T02:32:59;101043.69;;;14.69;100.00
63970;BME280;50156;37.772;-122.432;2022-09-27T02:35:30;101057.70;;;14.62;100.00
63970;BME280;50156;37.772;-122.432;2022-09-27T02:37:59;101060.26;;;14.65;100.00
63970;BME280;50156;37.772;-122.432;2022-09-27T02:40:32;101058.17;;;14.73;100.00
63970;BME280;50156;37.772;-122.432;2022-09-27T02:43:03;101054.27;;;14.69;100.00
63970;BME280;50156;37.772;-122.432;2022-09-27T02:45:41;101059.24;;;14.60;100.00
63970;BME280;50156;37.772;-122.432;2022-09-27T02:48:18;101056.79;;;14.50;100.00
63970;BME280;50156;37.772;-122.432;2022-09-27T02:51:02;101055.50;;;14.50;100.00
63970;BME280;50156;37.772;-122.432;2022-09-27T02:53:43;101058.74;;;14.80;100.00
63970;BME280;50156;37.772;-122.432;2022-09-27T02:56:23;101067.52;;;14.52;100.00
63970;BME280;50156;37.772;-122.432;2022-09-27T02:59:03;101077.90;;;14.38;100.00
63970;BME280;50156;37.772;-122.432;2022-09-27T03:01:40;101086.01;;;14.27;100.00
63970;BME280;50156;37.772;-122.432;2022-09-27T03:04:16;101087.77;;;14.42;100.00
63970;BME280;50156;37.772;-122.432;2022-09-27T03:06:48;101079.44;;;14.56;100.00
63970;BME280;50156;37.772;-122.432;2022-09-27T03:09:20;101078.21;;;14.52;100.00
63970;BME280;50156;37.772;-122.432;2022-09-27T03:11:49;101079.29;;;14.40;100.00
63970;BME280;50156;37.772;-122.432;2022-09-27T03:14:18;101090.98;;;14.23;100.00
63970;BME280;50156;37.772;-122.432;2022-09-27T03:16:47;101094.96;;;14.10;100.00
63970;BME280;50156;37.772;-122.432;2022-09-27T03:19:16;101102.52;;;14.09;100.00
63970;BME280;50156;37.772;-122.432;2022-09-27T03:21:45;101106.34;;;14.25;100.00
63970;BME280;50156;37.772;-122.432;2022-09-27T03:24:14;101109.89;;;14.21;100.00
63970;BME280;50156;37.772;-122.432;2022-09-27T03:26:43;101111.82;;;14.12;100.00
63970;BME280;50156;37.772;-122.432;2022-09-27T03:29:11;101124.08;;;14.06;100.00
63970;BME280;50156;37.772;-122.432;2022-09-27T03:31:39;101121.49;;;14.17;100.00
63970;BME280;50156;37.772;-122.432;2022-09-27T03:34:08;101123.08;;;14.19;100.00
63970;BME280;50156;37.772;-122.432;2022-09-27T03:36:37;101125.44;;;14.21;100.00
63970;BME280;50156;37.772;-122.432;2022-09-27T03:39:05;101131.43;;;14.25;100.00
63970;BME280;50156;37.772;-122.432;2022-09-27T03:41:33;101129.51;;;14.30;100.00
63970;BME280;50156;37.772;-122.432;2022-09-27T03:44:02;101132.58;;;14.23;100.00
63970;BME280;50156;37.772;-122.432;2022-09-27T03:46:31;101134.14;;;14.34;100.00
63970;BME280;50156;37.772;-122.432;2022-09-27T03:49:00;101137.67;;;14.45;100.00
63970;BME280;50156;37.772;-122.432;2022-09-27T03:51:29;101136.44;;;14.47;100.00
63970;BME280;50156;37.772;-122.432;2022-09-27T03:53:58;101136.51;;;14.35;100.00
63970;BME280;50156;37.772;-122.432;2022-09-27T03:56:26;101140.10;;;14.30;100.00
63970;BME280;50156;37.772;-122.432;2022-09-27T03:58:55;101139.89;;;14.14;100.00
63970;BME280;50156;37.772;-122.432;2022-09-27T04:01:23;101144.51;;;14.22;100.00
63970;BME280;50156;37.772;-122.432;2022-09-27T04:03:53;101141.50;;;14.07;100.00
63970;BME280;50156;37.772;-122.432;2022-09-27T04:06:22;101144.49;;;13.95;100.00
63970;BME280;50156;37.772;-122.432;2022-09-27T04:08:51;101140.74;;;13.97;100.00
63970;BME280;50156;37.772;-122.432;2022-09-27T04:11:19;101144.87;;;14.00;100.00
63970;BME280;50156;37.772;-122.432;2022-09-27T04:13:48;101151.93;;;14.06;100.00
63970;BME280;50156;37.772;-122.432;2022-09-27T04:16:17;101154.40;;;14.05;100.00
63970;BME280;50156;37.772;-122.432;2022-09-27T04:18:47;101161.21;;;14.12;100.00
63970;BME280;50156;37.772;-122.432;2022-09-27T04:21:15;101167.19;;;14.09;100.00
63970;BME280;50156;37.772;-122.432;2022-09-27T04:23:44;101166.88;;;14.04;100.00
63970;BME280;50156;37.772;-122.432;2022-09-27T04:26:13;101169.73;;;14.23;100.00
63970;BME280;50156;37.772;-122.432;2022-09-27T04:28:41;101172.29;;;14.22;100.00
63970;BME280;50156;37.772;-122.432;2022-09-27T04:31:10;101167.61;;;13.98;100.00
63970;BME280;50156;37.772;-122.432;2022-09-27T04:33:39;101169.33;;;14.06;100.00
63970;BME280;50156;37.772;-122.432;2022-09-27T04:36:10;101178.65;;;14.08;100.00
63970;BME280;50156;37.772;-122.432;2022-09-27T04:38:43;101182.59;;;14.13;100.00
63970;BME280;50156;37.772;-122.432;2022-09-27T04:41:11;101187.48;;;14.21;100.00
63970;BME280;50156;37.772;-122.432;2022-09-27T04:43:40;101186.06;;;14.16;100.00
63970;BME280;50156;37.772;-122.432;2022-09-27T04:46:09;101185.21;;;14.21;100.00
63970;BME280;50156;37.772;-122.432;2022-09-27T04:48:38;101183.83;;;14.22;100.00
63970;BME280;50156;37.772;-122.432;2022-09-27T04:51:09;101179.71;;;14.31;100.00
63970;BME280;50156;37.772;-122.432;2022-09-27T04:53:38;101178.90;;;14.42;100.00
63970;BME280;50156;37.772;-122.432;2022-09-27T04:56:07;101183.03;;;14.48;100.00
63970;BME280;50156;37.772;-122.432;2022-09-27T04:58:35;101190.67;;;14.37;100.00
63970;BME280;50156;37.772;-122.432;2022-09-27T05:01:04;101186.35;;;14.36;100.00
63970;BME280;50156;37.772;-122.432;2022-09-27T05:03:33;101187.41;;;14.46;100.00
63970;BME280;50156;37.772;-122.432;2022-09-27T05:06:02;101181.14;;;14.26;100.00
63970;BME280;50156;37.772;-122.432;2022-09-27T05:08:31;101189.12;;;14.31;100.00
63970;BME280;50156;37.772;-122.432;2022-09-27T05:11:00;101187.31;;;14.30;100.00
63970;BME280;50156;37.772;-122.432;2022-09-27T05:13:28;101185.38;;;14.32;100.00
63970;BME280;50156;37.772;-122.432;2022-09-27T05:16:02;101181.18;;;14.36;100.00
63970;BME280;50156;37.772;-122.432;2022-09-27T05:18:31;101176.45;;;14.35;100.00
63970;BME280;50156;37.772;-122.432;2022-09-27T05:21:00;101177.53;;;14.30;100.00
63970;BME280;50156;37.772;-122.432;2022-09-27T05:23:28;101180.92;;;14.36;100.00
63970;BME280;50156;37.772;-122.432;2022-09-27T05:25:56;101184.71;;;14.40;100.00
63970;BME280;50156;37.772;-122.432;2022-09-27T05:28:25;101184.00;;;14.39;100.00
63970;BME280;50156;37.772;-122.432;2022-09-27T05:30:53;101187.07;;;14.38;100.00
63970;BME280;50156;37.772;-122.432;2022-09-27T05:33:22;101176.33;;;14.21;100.00
63970;BME280;50156;37.772;-122.432;2022-09-27T05:35:55;101175.26;;;14.22;100.00
63970;BME280;50156;37.772;-122.432;2022-09-27T05:38:23;101172.11;;;14.31;100.00
63970;BME280;50156;37.772;-122.432;2022-09-27T05:40:52;101175.34;;;14.34;100.00
63970;BME280;50156;37.772;-122.432;2022-09-27T05:43:21;101184.52;;;14.29;100.00
63970;BME280;50156;37.772;-122.432;2022-09-27T05:45:50;101179.30;;;14.28;100.00
63970;BME280;50156;37.772;-122.432;2022-09-27T05:48:19;101186.84;;;14.21;100.00
63970;BME280;50156;37.772;-122.432;2022-09-27T05:50:48;101182.08;;;14.28;100.00
63970;BME280;50156;37.772;-122.432;2022-09-27T05:53:16;101185.92;;;14.32;100.00
63970;BME280;50156;37.772;-122.432;2022-09-27T05:55:45;101187.55;;;14.36;100.00
63970;BME280;50156;37.772;-122.432;2022-09-27T05:58:14;101188.04;;;14.42;100.00
63970;BME280;50156;37.772;-122.432;2022-09-27T06:00:43;101183.36;;;14.32;100.00
63970;BME280;50156;37.772;-122.432;2022-09-27T06:03:12;101182.93;;;14.33;100.00
63970;BME280;50156;37.772;-122.432;2022-09-27T06:05:41;101183.21;;;14.43;100.00
63970;BME280;50156;37.772;-122.432;2022-09-27T06:08:11;101178.49;;;14.45;100.00
63970;BME280;50156;37.772;-122.432;2022-09-27T06:10:40;101180.31;;;14.47;100.00
63970;BME280;50156;37.772;-122.432;2022-09-27T06:13:12;101186.25;;;14.42;100.00
63970;BME280;50156;37.772;-122.432;2022-09-27T06:15:42;101183.38;;;14.33;100.00
63970;BME280;50156;37.772;-122.432;2022-09-27T06:18:13;101182.83;;;14.36;100.00
63970;BME280;50156;37.772;-122.432;2022-09-27T06:20:42;101183.28;;;14.36;100.00
63970;BME280;50156;37.772;-122.432;2022-09-27T06:23:12;101184.69;;;14.40;100.00
63970;BME280;50156;37.772;-122.432;2022-09-27T06:25:41;101186.05;;;14.44;100.00
63970;BME280;50156;37.772;-122.432;2022-09-27T06:28:11;101188.74;;;14.46;100.00
63970;BME280;50156;37.772;-122.432;2022-09-27T06:30:42;101182.67;;;14.41;100.00
63970;BME280;50156;37.772;-122.432;2022-09-27T06:33:13;101181.49;;;14.39;100.00
63970;BME280;50156;37.772;-122.432;2022-09-27T06:35:42;101186.92;;;14.39;100.00
63970;BME280;50156;37.772;-122.432;2022-09-27T06:38:12;101188.34;;;14.43;100.00
63970;BME280;50156;37.772;-122.432;2022-09-27T06:40:41;101185.19;;;14.56;100.00
63970;BME280;50156;37.772;-122.432;2022-09-27T06:43:11;101177.15;;;14.45;100.00
63970;BME280;50156;37.772;-122.432;2022-09-27T06:45:41;101175.41;;;14.45;100.00
63970;BME280;50156;37.772;-122.432;2022-09-27T06:48:11;101179.92;;;14.51;100.00
63970;BME280;50156;37.772;-122.432;2022-09-27T06:50:42;101176.61;;;14.51;100.00
63970;BME280;50156;37.772;-122.432;2022-09-27T06:53:12;101174.23;;;14.55;100.00
63970;BME280;50156;37.772;-122.432;2022-09-27T06:55:42;101170.80;;;14.57;100.00
63970;BME280;50156;37.772;-122.432;2022-09-27T06:58:11;101170.87;;;14.57;100.00
63970;BME280;50156;37.772;-122.432;2022-09-27T07:00:41;101171.03;;;14.42;100.00
63970;BME280;50156;37.772;-122.432;2022-09-27T07:03:11;101174.23;;;14.43;100.00
63970;BME280;50156;37.772;-122.432;2022-09-27T07:05:40;101176.91;;;14.49;100.00
63970;BME280;50156;37.772;-122.432;2022-09-27T07:08:09;101171.30;;;14.42;100.00
63970;BME280;50156;37.772;-122.432;2022-09-27T07:10:39;101168.37;;;14.47;100.00
63970;BME280;50156;37.772;-122.432;2022-09-27T07:13:09;101167.69;;;14.39;100.00
63970;BME280;50156;37.772;-122.432;2022-09-27T07:15:41;101167.26;;;14.34;100.00
63970;BME280;50156;37.772;-122.432;2022-09-27T07:18:09;101169.24;;;14.24;100.00
63970;BME280;50156;37.772;-122.432;2022-09-27T07:20:38;101167.07;;;14.31;100.00
63970;BME280;50156;37.772;-122.432;2022-09-27T07:23:07;101162.26;;;14.45;100.00
63970;BME280;50156;37.772;-122.432;2022-09-27T07:25:36;101158.59;;;14.52;100.00
63970;BME280;50156;37.772;-122.432;2022-09-27T07:28:07;101159.47;;;14.34;100.00
63970;BME280;50156;37.772;-122.432;2022-09-27T07:30:37;101162.95;;;14.46;100.00
63970;BME280;50156;37.772;-122.432;2022-09-27T07:33:06;101167.44;;;14.42;100.00
63970;BME280;50156;37.772;-122.432;2022-09-27T07:35:37;101166.69;;;14.48;100.00
63970;BME280;50156;37.772;-122.432;2022-09-27T07:38:07;101164.96;;;14.48;100.00
63970;BME280;50156;37.772;-122.432;2022-09-27T07:40:37;101167.58;;;14.49;100.00
63970;BME280;50156;37.772;-122.432;2022-09-27T07:43:06;101168.03;;;14.53;100.00
63970;BME280;50156;37.772;-122.432;2022-09-27T07:45:36;101161.16;;;14.58;100.00
63970;BME280;50156;37.772;-122.432;2022-09-27T07:48:05;101158.16;;;14.57;100.00
63970;BME280;50156;37.772;-122.432;2022-09-27T07:50:35;101159.49;;;14.40;100.00
63970;BME280;50156;37.772;-122.432;2022-09-27T07:53:03;101163.30;;;14.45;100.00
63970;BME280;50156;37.772;-122.432;2022-09-27T07:55:32;101158.54;;;14.43;100.00
63970;BME280;50156;37.772;-122.432;2022-09-27T07:58:04;101162.51;;;14.43;100.00
63970;BME280;50156;37.772;-122.432;2022-09-27T08:00:33;101168.78;;;14.43;100.00
63970;BME280;50156;37.772;-122.432;2022-09-27T08:03:04;101172.05;;;14.44;100.00
63970;BME280;50156;37.772;-122.432;2022-09-27T08:05:34;101177.63;;;14.46;100.00
63970;BME280;50156;37.772;-122.432;2022-09-27T08:08:03;101174.28;;;14.33;100.00
63970;BME280;50156;37.772;-122.432;2022-09-27T08:10:33;101175.94;;;14.30;100.00
63970;BME280;50156;37.772;-122.432;2022-09-27T08:13:03;101171.50;;;14.22;100.00
63970;BME280;50156;37.772;-122.432;2022-09-27T08:15:33;101172.97;;;14.30;100.00
63970;BME280;50156;37.772;-122.432;2022-09-27T08:18:03;101176.98;;;14.31;100.00
63970;BME280;50156;37.772;-122.432;2022-09-27T08:20:32;101179.20;;;14.44;100.00
63970;BME280;50156;37.772;-122.432;2022-09-27T08:23:01;101174.61;;;14.44;100.00
63970;BME280;50156;37.772;-122.432;2022-09-27T08:25:29;101172.73;;;14.48;100.00
63970;BME280;50156;37.772;-122.432;2022-09-27T08:27:58;101170.37;;;14.45;100.00
63970;BME280;50156;37.772;-122.432;2022-09-27T08:30:28;101167.27;;;14.47;100.00
63970;BME280;50156;37.772;-122.432;2022-09-27T08:32:58;101165.03;;;14.49;100.00
63970;BME280;50156;37.772;-122.432;2022-09-27T08:35:27;101167.75;;;14.41;100.00
63970;BME280;50156;37.772;-122.432;2022-09-27T08:37:57;101173.40;;;14.33;100.00
63970;BME280;50156;37.772;-122.432;2022-09-27T08:40:35;101178.28;;;14.20;100.00
63970;BME280;50156;37.772;-122.432;2022-09-27T08:43:12;101182.96;;;14.33;100.00
63970;BME280;50156;37.772;-122.432;2022-09-27T08:45:57;101185.55;;;14.31;100.00
63970;BME280;50156;37.772;-122.432;2022-09-27T08:48:30;101183.31;;;14.23;100.00
63970;BME280;50156;37.772;-122.432;2022-09-27T08:51:01;101180.65;;;14.22;100.00
63970;BME280;50156;37.772;-122.432;2022-09-27T08:53:35;101181.83;;;14.29;100.00
63970;BME280;50156;37.772;-122.432;2022-09-27T08:56:08;101181.53;;;14.25;100.00
63970;BME280;50156;37.772;-122.432;2022-09-27T08:58:42;101181.80;;;14.24;100.00
63970;BME280;50156;37.772;-122.432;2022-09-27T09:01:15;101179.59;;;14.33;100.00
63970;BME280;50156;37.772;-122.432;2022-09-27T09:03:48;101173.50;;;14.34;100.00
63970;BME280;50156;37.772;-122.432;2022-09-27T09:06:21;101177.08;;;14.44;100.00
63970;BME280;50156;37.772;-122.432;2022-09-27T09:09:01;101178.20;;;14.48;100.00
63970;BME280;50156;37.772;-122.432;2022-09-27T09:11:42;101181.64;;;14.33;100.00
63970;BME280;50156;37.772;-122.432;2022-09-27T09:14:28;101184.03;;;14.28;100.00
63970;BME280;50156;37.772;-122.432;2022-09-27T09:17:09;101191.17;;;14.35;100.00
63970;BME280;50156;37.772;-122.432;2022-09-27T09:19:52;101196.27;;;14.30;100.00
63970;BME280;50156;37.772;-122.432;2022-09-27T09:22:37;101192.50;;;14.23;100.00
63970;BME280;50156;37.772;-122.432;2022-09-27T09:25:24;101188.56;;;14.33;100.00
63970;BME280;50156;37.772;-122.432;2022-09-27T09:28:05;101184.97;;;14.41;100.00
63970;BME280;50156;37.772;-122.432;2022-09-27T09:30:50;101177.33;;;14.51;100.00
63970;BME280;50156;37.772;-122.432;2022-09-27T09:33:25;101173.06;;;14.51;100.00
63970;BME280;50156;37.772;-122.432;2022-09-27T09:35:58;101166.66;;;14.53;100.00
63970;BME280;50156;37.772;-122.432;2022-09-27T09:38:35;101165.71;;;14.55;100.00
63970;BME280;50156;37.772;-122.432;2022-09-27T09:41:09;101167.24;;;14.52;100.00
63970;BME280;50156;37.772;-122.432;2022-09-27T09:43:44;101165.02;;;14.55;100.00
63970;BME280;50156;37.772;-122.432;2022-09-27T09:46:18;101159.48;;;14.62;100.00
63970;BME280;50156;37.772;-122.432;2022-09-27T09:48:52;101161.05;;;14.52;100.00
63970;BME280;50156;37.772;-122.432;2022-09-27T09:51:26;101162.93;;;14.57;100.00
63970;BME280;50156;37.772;-122.432;2022-09-27T09:54:01;101169.21;;;14.63;100.00
63970;BME280;50156;37.772;-122.432;2022-09-27T09:56:33;101168.11;;;14.61;100.00
63970;BME280;50156;37.772;-122.432;2022-09-27T09:59:11;101168.26;;;14.65;100.00
63970;BME280;50156;37.772;-122.432;2022-09-27T10:01:44;101168.55;;;14.55;100.00
63970;BME280;50156;37.772;-122.432;2022-09-27T10:04:18;101170.37;;;14.44;100.00
63970;BME280;50156;37.772;-122.432;2022-09-27T10:06:49;101178.78;;;14.37;100.00
63970;BME280;50156;37.772;-122.432;2022-09-27T10:09:23;101174.44;;;14.16;100.00
63970;BME280;50156;37.772;-122.432;2022-09-27T10:11:54;101174.22;;;14.20;100.00
63970;BME280;50156;37.772;-122.432;2022-09-27T10:14:24;101170.44;;;14.16;100.00
63970;BME280;50156;37.772;-122.432;2022-09-27T10:16:57;101169.84;;;14.15;100.00
63970;BME280;50156;37.772;-122.432;2022-09-27T10:19:30;101169.78;;;14.08;100.00
63970;BME280;50156;37.772;-122.432;2022-09-27T10:22:02;101173.61;;;14.02;100.00
63970;BME280;50156;37.772;-122.432;2022-09-27T10:24:53;101170.51;;;13.98;100.00
63970;BME280;50156;37.772;-122.432;2022-09-27T10:27:22;101170.49;;;14.14;100.00
63970;BME280;50156;37.772;-122.432;2022-09-27T10:29:57;101170.13;;;14.20;100.00
63970;BME280;50156;37.772;-122.432;2022-09-27T10:32:29;101172.45;;;14.14;100.00
63970;BME280;50156;37.772;-122.432;2022-09-27T10:35:21;101173.98;;;14.20;100.00
63970;BME280;50156;37.772;-122.432;2022-09-27T10:38:18;101176.48;;;14.20;100.00
63970;BME280;50156;37.772;-122.432;2022-09-27T10:40:50;101175.57;;;14.32;100.00
63970;BME280;50156;37.772;-122.432;2022-09-27T10:43:27;101170.49;;;14.34;100.00
63970;BME280;50156;37.772;-122.432;2022-09-27T10:46:19;101171.02;;;14.24;100.00
63970;BME280;50156;37.772;-122.432;2022-09-27T10:49:08;101167.14;;;14.23;100.00
63970;BME280;50156;37.772;-122.432;2022-09-27T10:51:37;101165.22;;;14.24;100.00
63970;BME280;50156;37.772;-122.432;2022-09-27T10:54:18;101160.95;;;14.14;100.00
63970;BME280;50156;37.772;-122.432;2022-09-27T10:56:55;101159.30;;;14.06;100.00
63970;BME280;50156;37.772;-122.432;2022-09-27T10:59:25;101165.23;;;13.98;100.00
63970;BME280;50156;37.772;-122.432;2022-09-27T11:01:55;101166.77;;;13.92;100.00
63970;BME280;50156;37.772;-122.432;2022-09-27T11:04:28;101169.57;;;14.07;100.00
63970;BME280;50156;37.772;-122.432;2022-09-27T11:07:10;101174.21;;;14.13;100.00
63970;BME280;50156;37.772;-122.432;2022-09-27T11:09:51;101174.61;;;14.19;100.00
63970;BME280;50156;37.772;-122.432;2022-09-27T11:12:19;101177.70;;;14.13;100.00
63970;BME280;50156;37.772;-122.432;2022-09-27T11:14:55;101179.12;;;14.22;100.00
63970;BME280;50156;37.772;-122.432;2022-09-27T11:17:36;101178.30;;;14.26;100.00
63970;BME280;50156;37.772;-122.432;2022-09-27T11:20:22;101176.18;;;14.27;100.00
63970;BME280;50156;37.772;-122.432;2022-09-27T11:23:17;101170.52;;;14.17;100.00
63970;BME280;50156;37.772;-122.432;2022-09-27T11:26:02;101174.12;;;14.14;100.00
63970;BME280;50156;37.772;-122.432;2022-09-27T11:28:46;101182.46;;;14.11;100.00
63970;BME280;50156;37.772;-122.432;2022-09-27T11:31:24;101182.03;;;14.01;100.00
63970;BME280;50156;37.772;-122.432;2022-09-27T11:34:06;101184.17;;;13.99;100.00
63970;BME280;50156;37.772;-122.432;2022-09-27T11:36:51;101185.05;;;13.98;100.00
63970;BME280;50156;37.772;-122.432;2022-09-27T11:39:35;101183.27;;;14.08;100.00
63970;BME280;50156;37.772;-122.432;2022-09-27T11:42:23;101188.75;;;14.09;100.00
63970;BME280;50156;37.772;-122.432;2022-09-27T11:45:09;101190.17;;;14.12;100.00
63970;BME280;50156;37.772;-122.432;2022-09-27T11:47:46;101182.88;;;14.13;100.00
63970;BME280;50156;37.772;-122.432;2022-09-27T11:50:28;101188.39;;;14.04;100.00
63970;BME280;50156;37.772;-122.432;2022-09-27T11:53:14;101190.03;;;14.09;100.00
63970;BME280;50156;37.772;-122.432;2022-09-27T11:55:51;101191.43;;;14.16;100.00
63970;BME280;50156;37.772;-122.432;2022-09-27T11:58:29;101195.89;;;14.14;100.00
63970;BME280;50156;37.772;-122.432;2022-09-27T12:01:09;101195.17;;;14.15;100.00
63970;BME280;50156;37.772;-122.432;2022-09-27T12:04:05;101194.80;;;14.13;100.00
63970;BME280;50156;37.772;-122.432;2022-09-27T12:06:46;101193.20;;;14.23;100.00
63970;BME280;50156;37.772;-122.432;2022-09-27T12:09:21;101190.95;;;14.34;100.00
63970;BME280;50156;37.772;-122.432;2022-09-27T12:11:53;101186.01;;;14.33;100.00
63970;BME280;50156;37.772;-122.432;2022-09-27T12:14:32;101188.61;;;14.33;100.00
63970;BME280;50156;37.772;-122.432;2022-09-27T12:17:04;101189.76;;;14.22;100.00
63970;BME280;50156;37.772;-122.432;2022-09-27T12:19:37;101190.06;;;14.29;100.00
63970;BME280;50156;37.772;-122.432;2022-09-27T12:22:13;101188.22;;;14.32;100.00
63970;BME280;50156;37.772;-122.432;2022-09-27T12:24:43;101187.77;;;14.29;100.00
63970;BME280;50156;37.772;-122.432;2022-09-27T12:27:18;101186.43;;;14.36;100.00
63970;BME280;50156;37.772;-122.432;2022-09-27T12:29:50;101184.58;;;14.41;100.00
63970;BME280;50156;37.772;-122.432;2022-09-27T12:32:24;101180.28;;;14.38;100.00
63970;BME280;50156;37.772;-122.432;2022-09-27T12:34:59;101183.95;;;14.48;100.00
63970;BME280;50156;37.772;-122.432;2022-09-27T12:37:34;101185.74;;;14.52;100.00
63970;BME280;50156;37.772;-122.432;2022-09-27T12:40:12;101180.18;;;14.41;100.00